Tests — V7NV7 — position and weather

sailwx.info

Track history (hours):
 
Tides and Currents Weather Stations Pressure Air Temp Water Temp Dewpoint Dewpoint Depression Visibility Wind Speed Wind Dir Waves Ship Positions

Tests

Last reported at 2014-Oct-30 22:31 UTC. Time now 2014-Oct-30 22:58 UTC.
Position N 54°29' E 006°26'.

Length 37 m; draft 5.7 m.

Type: Cargo ship. MMSI: 438003028.

Date/timePositionNaut miles runAvg speedWind from/ knotsBaromVisibWave heightAir tempDewpointWater temp
2014-Oct-30 22:31N 54°29' E 006°26'0 0.0
2014-Oct-30 13:31N 54°29' E 006°26'26 0.7
2014-Oct-29 01:04N 54°18' E 007°06'5 9.3
2014-Oct-29 00:34N 54°16' E 007°13'9 9.0
2014-Oct-28 23:33N 54°12' E 007°27'9 8.6
2014-Oct-28 22:33N 54°05' E 007°35'17 8.4
2014-Oct-28 20:33N 53°51' E 007°52'1111.0
2014-Oct-28 19:33N 53°43' E 008°04'1211.9
2014-Oct-28 18:34N 53°32' E 008°10'1 0.8
2014-Oct-28 17:31N 53°31' E 008°09'0 0.0
2014-Oct-28 16:31N 53°31' E 008°09'0 0.0
2014-Oct-28 15:31N 53°31' E 008°09'0 0.0
2014-Oct-28 14:31N 53°31' E 008°09'0 0.0
2014-Oct-28 13:31N 53°31' E 008°09'0 0.0
2014-Oct-28 12:31N 53°31' E 008°09'0 0.0
2014-Oct-28 11:31N 53°31' E 008°09'0 0.0
2014-Oct-28 10:31N 53°31' E 008°09'0 0.0
2014-Oct-28 09:31N 53°31' E 008°09'0 0.0
2014-Oct-28 08:31N 53°31' E 008°09'0 0.0
2014-Oct-28 07:31N 53°31' E 008°09'0 0.0
2014-Oct-28 06:28N 53°31' E 008°09'0 0.0
2014-Oct-28 05:31N 53°31' E 008°09'0 0.0
2014-Oct-28 04:31N 53°31' E 008°09'0 0.0
2014-Oct-28 03:31N 53°31' E 008°09'0 0.0
2014-Oct-28 02:31N 53°31' E 008°09'0 0.0
2014-Oct-28 01:31N 53°31' E 008°09'0 0.0
2014-Oct-28 00:31N 53°31' E 008°09'0 0.0
2014-Oct-27 23:31N 53°31' E 008°09'0 0.0
2014-Oct-27 22:31N 53°31' E 008°09'0 0.0
2014-Oct-27 21:31N 53°31' E 008°09'0 0.0
2014-Oct-27 20:32N 53°31' E 008°09'0 0.0
2014-Oct-27 19:31N 53°31' E 008°09'0 0.0
2014-Oct-27 18:31N 53°31' E 008°09'0 0.0
2014-Oct-27 17:32N 53°31' E 008°09'0 0.0
2014-Oct-27 16:31N 53°31' E 008°09'0 0.0
2014-Oct-27 15:31N 53°31' E 008°09'0 0.0
2014-Oct-27 14:31N 53°31' E 008°09'0 0.0
2014-Oct-27 13:31N 53°31' E 008°09'0 0.0
2014-Oct-27 12:28N 53°31' E 008°09'0 0.0
2014-Oct-27 11:28N 53°31' E 008°09'0 0.0
2014-Oct-27 10:31N 53°31' E 008°09'0 0.0
2014-Oct-27 09:31N 53°31' E 008°09'0 0.0
2014-Oct-27 08:31N 53°31' E 008°09'0 0.0
2014-Oct-27 07:31N 53°31' E 008°09'0 0.0
2014-Oct-27 06:31N 53°31' E 008°09'0 0.0
2014-Oct-27 05:31N 53°31' E 008°09'0 0.0
2014-Oct-27 04:31N 53°31' E 008°09'0 0.0
2014-Oct-27 03:31N 53°31' E 008°09'0 0.0
2014-Oct-27 02:31N 53°31' E 008°09'0 0.0
2014-Oct-27 01:31N 53°31' E 008°09'0 0.0
2014-Oct-27 00:31N 53°31' E 008°09'0 0.0
2014-Oct-26 23:31N 53°31' E 008°09'0 0.0
2014-Oct-26 22:31N 53°31' E 008°09'0 0.0
2014-Oct-26 21:31N 53°31' E 008°09'0 0.0
2014-Oct-26 20:31N 53°31' E 008°09'0 0.0
2014-Oct-26 19:31N 53°31' E 008°09'0 0.0
2014-Oct-26 18:31N 53°31' E 008°09'0 0.0
2014-Oct-26 17:31N 53°31' E 008°09'0 0.0
2014-Oct-26 16:31N 53°31' E 008°09'0 0.0
2014-Oct-26 15:28N 53°31' E 008°09'0 0.0
2014-Oct-26 14:31N 53°31' E 008°09'0 0.0
2014-Oct-26 13:31N 53°31' E 008°09'0 0.0
2014-Oct-26 12:31N 53°31' E 008°09'0 0.0
2014-Oct-26 11:31N 53°31' E 008°09'0 0.0
2014-Oct-26 10:31N 53°31' E 008°09'0 0.0
2014-Oct-26 09:31N 53°31' E 008°09'0 0.0
2014-Oct-26 08:31N 53°31' E 008°09'0 0.0
2014-Oct-26 07:31N 53°31' E 008°09'0 0.0
2014-Oct-26 06:31N 53°31' E 008°09'0 0.0
2014-Oct-26 05:31N 53°31' E 008°09'0 0.0
2014-Oct-26 04:28N 53°31' E 008°09'0 0.0
2014-Oct-26 03:31N 53°31' E 008°09'0 0.0
2014-Oct-26 02:31N 53°31' E 008°09'0 0.0
2014-Oct-26 01:31N 53°31' E 008°09'0 0.0
2014-Oct-26 00:31N 53°31' E 008°09'0 0.0
2014-Oct-25 23:31N 53°31' E 008°09'0 0.0
2014-Oct-25 22:31N 53°31' E 008°09'0 0.0
2014-Oct-25 21:31N 53°31' E 008°09'0 0.0
2014-Oct-25 20:31N 53°31' E 008°09'0 0.0
2014-Oct-25 19:31N 53°31' E 008°09'0 0.0
2014-Oct-25 18:31N 53°31' E 008°09'0 0.0
2014-Oct-25 17:31N 53°31' E 008°09'0 0.0
2014-Oct-25 16:31N 53°31' E 008°09'0 0.0
2014-Oct-25 15:31N 53°31' E 008°09'0 0.0
2014-Oct-25 14:31N 53°31' E 008°09'0 0.0
2014-Oct-25 13:28N 53°31' E 008°09'0 0.0
2014-Oct-25 12:31N 53°31' E 008°09'0 0.0
2014-Oct-25 11:31N 53°31' E 008°09'0 0.0
2014-Oct-25 10:28N 53°31' E 008°09'0 0.0
2014-Oct-25 09:28N 53°31' E 008°09'0 0.0
2014-Oct-25 08:31N 53°31' E 008°09'0 0.0
2014-Oct-25 07:31N 53°31' E 008°09'0 0.0
2014-Oct-25 06:31N 53°31' E 008°09'0 0.0
2014-Oct-25 05:31N 53°31' E 008°09'0 0.0
2014-Oct-25 04:31N 53°31' E 008°09'0 0.0
2014-Oct-25 03:31N 53°31' E 008°09'0 0.0
2014-Oct-25 02:31N 53°31' E 008°09'0 0.0
2014-Oct-25 01:31N 53°31' E 008°09'0 0.0
2014-Oct-25 00:31N 53°31' E 008°09'0 0.0
2014-Oct-24 23:31N 53°31' E 008°09'0 0.0
2014-Oct-24 22:31N 53°31' E 008°09'0 0.0
2014-Oct-24 21:31N 53°31' E 008°09'0 0.0
2014-Oct-24 20:31N 53°31' E 008°09'0 0.0
2014-Oct-24 19:31N 53°31' E 008°09'0 0.0
2014-Oct-24 18:31N 53°31' E 008°09'0 0.0
2014-Oct-24 17:31N 53°31' E 008°09'0 0.0
2014-Oct-24 16:31N 53°31' E 008°09'0 0.0
2014-Oct-24 15:31N 53°31' E 008°09'0 0.0
2014-Oct-24 14:31N 53°31' E 008°09'0 0.0
2014-Oct-24 13:31N 53°31' E 008°09'0 0.0
2014-Oct-24 12:31N 53°31' E 008°09'0 0.0
2014-Oct-24 11:31N 53°31' E 008°09'0 0.0
2014-Oct-24 10:31N 53°31' E 008°09'0 0.0
2014-Oct-24 09:31N 53°31' E 008°09'0 0.0
2014-Oct-24 08:31N 53°31' E 008°09'0 0.0
2014-Oct-24 07:31N 53°31' E 008°09'0 0.0
2014-Oct-24 06:31N 53°31' E 008°09'0 0.0
2014-Oct-24 05:31N 53°31' E 008°09'0 0.0
2014-Oct-24 04:31N 53°31' E 008°09'0 0.0
2014-Oct-24 03:31N 53°31' E 008°09'0 0.0
2014-Oct-24 02:31N 53°31' E 008°09'0 0.0
2014-Oct-24 01:31N 53°31' E 008°09'0 0.0
2014-Oct-24 00:31N 53°31' E 008°09'0 0.0
2014-Oct-23 23:31N 53°31' E 008°09'0 0.0
2014-Oct-23 22:31N 53°31' E 008°09'0 0.0
2014-Oct-23 21:28N 53°31' E 008°09'0 0.0
2014-Oct-23 20:31N 53°31' E 008°09'0 0.0
2014-Oct-23 19:31N 53°31' E 008°09'0 0.0
2014-Oct-23 18:31N 53°31' E 008°09'0 0.0
2014-Oct-23 17:31N 53°31' E 008°09'0 0.0
2014-Oct-23 16:31N 53°31' E 008°09'0 0.0
2014-Oct-23 15:31N 53°31' E 008°09'0 0.0
2014-Oct-23 14:31N 53°31' E 008°09'0 0.0
2014-Oct-23 13:31N 53°31' E 008°09'0 0.0
2014-Oct-23 12:31N 53°31' E 008°09'0 0.0
2014-Oct-23 11:31N 53°31' E 008°09'0 0.0
2014-Oct-23 10:31N 53°31' E 008°09'0 0.0
2014-Oct-23 09:31N 53°31' E 008°09'0 0.0
2014-Oct-23 08:31N 53°31' E 008°09'0 0.0
2014-Oct-23 07:31N 53°31' E 008°09'0 0.0
2014-Oct-23 06:31N 53°31' E 008°09'0 0.0
2014-Oct-23 05:31N 53°31' E 008°09'0 0.0
2014-Oct-23 04:31N 53°31' E 008°09'0 0.0
2014-Oct-23 03:31N 53°31' E 008°09'0 0.0
2014-Oct-23 02:31N 53°31' E 008°09'0 0.0
2014-Oct-23 01:31N 53°31' E 008°09'0 0.0
2014-Oct-23 00:31N 53°31' E 008°09'0 0.0
2014-Oct-22 23:31N 53°31' E 008°09'0 0.0
2014-Oct-22 22:31N 53°31' E 008°09'0 0.0
2014-Oct-22 21:31N 53°31' E 008°09'0 0.0
2014-Oct-22 20:31N 53°31' E 008°09'0 0.0
2014-Oct-22 19:31N 53°31' E 008°09'0 0.0
2014-Oct-22 18:31N 53°31' E 008°09'0 0.0
2014-Oct-22 17:31N 53°31' E 008°09'0 0.0
2014-Oct-22 16:31N 53°31' E 008°09'0 0.0
2014-Oct-22 15:31N 53°31' E 008°09'0 0.0
2014-Oct-22 14:31N 53°31' E 008°09'0 0.0
2014-Oct-22 13:31N 53°31' E 008°09'0 0.0
2014-Oct-22 12:28N 53°31' E 008°09'0 0.0
2014-Oct-22 11:31N 53°31' E 008°09'0 0.0
2014-Oct-22 10:25N 53°31' E 008°09'0 0.0
2014-Oct-22 09:31N 53°31' E 008°09'0 0.0
2014-Oct-22 08:31N 53°31' E 008°09'0 0.0
2014-Oct-22 07:31N 53°31' E 008°09'0 0.0
2014-Oct-22 06:31N 53°31' E 008°09'0 0.0
2014-Oct-22 05:31N 53°31' E 008°09'0 0.0
2014-Oct-22 04:25N 53°31' E 008°09'0 0.0
2014-Oct-22 03:31N 53°31' E 008°09'0 0.0
2014-Oct-22 02:31N 53°31' E 008°09'0 0.0
2014-Oct-22 01:31N 53°31' E 008°09'0 0.0
2014-Oct-22 00:28N 53°31' E 008°09'0 0.0
2014-Oct-21 23:31N 53°31' E 008°09'0 0.0
2014-Oct-21 22:31N 53°31' E 008°09'0 0.0
2014-Oct-21 21:31N 53°31' E 008°09'0 0.0
2014-Oct-21 20:31N 53°31' E 008°09'0 0.0
2014-Oct-21 19:31N 53°31' E 008°09'0 0.0
2014-Oct-21 18:31N 53°31' E 008°09'0 0.0
2014-Oct-21 17:31N 53°31' E 008°09'0 0.0
2014-Oct-21 16:31N 53°31' E 008°09'0 0.0
2014-Oct-21 15:31N 53°31' E 008°09'0 0.0
2014-Oct-21 14:31N 53°31' E 008°09'0 0.0
2014-Oct-21 13:31N 53°31' E 008°09'0 0.0
2014-Oct-21 12:31N 53°31' E 008°09'0 0.0
2014-Oct-21 11:31N 53°31' E 008°09'0 0.0
2014-Oct-21 10:31N 53°31' E 008°09'0 0.0
2014-Oct-21 09:31N 53°31' E 008°09'0 0.0
2014-Oct-21 08:31N 53°31' E 008°09'0 0.0
2014-Oct-21 07:31N 53°31' E 008°09'0 0.0
2014-Oct-21 06:31N 53°31' E 008°09'0 0.0
2014-Oct-21 05:31N 53°31' E 008°09'0 0.0
2014-Oct-21 04:31N 53°31' E 008°09'0 0.0
2014-Oct-21 03:31N 53°31' E 008°09'0 0.0
2014-Oct-21 02:31N 53°31' E 008°09'0 0.0
2014-Oct-21 01:31N 53°31' E 008°09'0 0.0
2014-Oct-21 00:31N 53°31' E 008°09'0 0.0
2014-Oct-20 23:31N 53°31' E 008°09'0 0.0
2014-Oct-20 22:31N 53°31' E 008°09'  
Track history (hours):
 
Tides and Currents Weather Stations Pressure Air Temp Water Temp Dewpoint Dewpoint Depression Visibility Wind Speed Wind Dir Waves Ship Positions

Tests

Last reported at 2014-Oct-30 22:31 UTC. Time now 2014-Oct-30 22:58 UTC.
Position N 54°29' E 006°26'.

Length 37 m; draft 5.7 m.

Type: Cargo ship. MMSI: 438003028.

Date/timePositionNaut miles runAvg speedWind from/ knotsBaromVisibWave heightAir tempDewpointWater temp
2014-Oct-30 22:31N 54°29' E 006°26'0 0.0
2014-Oct-30 13:31N 54°29' E 006°26'26 0.7
2014-Oct-29 01:04N 54°18' E 007°06'5 9.3
2014-Oct-29 00:34N 54°16' E 007°13'9 9.0
2014-Oct-28 23:33N 54°12' E 007°27'9 8.6
2014-Oct-28 22:33N 54°05' E 007°35'17 8.4
2014-Oct-28 20:33N 53°51' E 007°52'1111.0
2014-Oct-28 19:33N 53°43' E 008°04'1211.9
2014-Oct-28 18:34N 53°32' E 008°10'1 0.8
2014-Oct-28 17:31N 53°31' E 008°09'0 0.0
2014-Oct-28 16:31N 53°31' E 008°09'0 0.0
2014-Oct-28 15:31N 53°31' E 008°09'0 0.0
2014-Oct-28 14:31N 53°31' E 008°09'0 0.0
2014-Oct-28 13:31N 53°31' E 008°09'0 0.0
2014-Oct-28 12:31N 53°31' E 008°09'0 0.0
2014-Oct-28 11:31N 53°31' E 008°09'0 0.0
2014-Oct-28 10:31N 53°31' E 008°09'0 0.0
2014-Oct-28 09:31N 53°31' E 008°09'0 0.0
2014-Oct-28 08:31N 53°31' E 008°09'0 0.0
2014-Oct-28 07:31N 53°31' E 008°09'0 0.0
2014-Oct-28 06:28N 53°31' E 008°09'0 0.0
2014-Oct-28 05:31N 53°31' E 008°09'0 0.0
2014-Oct-28 04:31N 53°31' E 008°09'0 0.0
2014-Oct-28 03:31N 53°31' E 008°09'0 0.0
2014-Oct-28 02:31N 53°31' E 008°09'0 0.0
2014-Oct-28 01:31N 53°31' E 008°09'0 0.0
2014-Oct-28 00:31N 53°31' E 008°09'0 0.0
2014-Oct-27 23:31N 53°31' E 008°09'0 0.0
2014-Oct-27 22:31N 53°31' E 008°09'0 0.0
2014-Oct-27 21:31N 53°31' E 008°09'0 0.0
2014-Oct-27 20:32N 53°31' E 008°09'0 0.0
2014-Oct-27 19:31N 53°31' E 008°09'0 0.0
2014-Oct-27 18:31N 53°31' E 008°09'0 0.0
2014-Oct-27 17:32N 53°31' E 008°09'0 0.0
2014-Oct-27 16:31N 53°31' E 008°09'0 0.0
2014-Oct-27 15:31N 53°31' E 008°09'0 0.0
2014-Oct-27 14:31N 53°31' E 008°09'0 0.0
2014-Oct-27 13:31N 53°31' E 008°09'0 0.0
2014-Oct-27 12:28N 53°31' E 008°09'0 0.0
2014-Oct-27 11:28N 53°31' E 008°09'0 0.0
2014-Oct-27 10:31N 53°31' E 008°09'0 0.0
2014-Oct-27 09:31N 53°31' E 008°09'0 0.0
2014-Oct-27 08:31N 53°31' E 008°09'0 0.0
2014-Oct-27 07:31N 53°31' E 008°09'0 0.0
2014-Oct-27 06:31N 53°31' E 008°09'0 0.0
2014-Oct-27 05:31N 53°31' E 008°09'0 0.0
2014-Oct-27 04:31N 53°31' E 008°09'0 0.0
2014-Oct-27 03:31N 53°31' E 008°09'0 0.0
2014-Oct-27 02:31N 53°31' E 008°09'0 0.0
2014-Oct-27 01:31N 53°31' E 008°09'0 0.0
2014-Oct-27 00:31N 53°31' E 008°09'0 0.0
2014-Oct-26 23:31N 53°31' E 008°09'0 0.0
2014-Oct-26 22:31N 53°31' E 008°09'0 0.0
2014-Oct-26 21:31N 53°31' E 008°09'0 0.0
2014-Oct-26 20:31N 53°31' E 008°09'0 0.0
2014-Oct-26 19:31N 53°31' E 008°09'0 0.0
2014-Oct-26 18:31N 53°31' E 008°09'0 0.0
2014-Oct-26 17:31N 53°31' E 008°09'0 0.0
2014-Oct-26 16:31N 53°31' E 008°09'0 0.0
2014-Oct-26 15:28N 53°31' E 008°09'0 0.0
2014-Oct-26 14:31N 53°31' E 008°09'0 0.0
2014-Oct-26 13:31N 53°31' E 008°09'0 0.0
2014-Oct-26 12:31N 53°31' E 008°09'0 0.0
2014-Oct-26 11:31N 53°31' E 008°09'0 0.0
2014-Oct-26 10:31N 53°31' E 008°09'0 0.0
2014-Oct-26 09:31N 53°31' E 008°09'0 0.0
2014-Oct-26 08:31N 53°31' E 008°09'0 0.0
2014-Oct-26 07:31N 53°31' E 008°09'0 0.0
2014-Oct-26 06:31N 53°31' E 008°09'0 0.0
2014-Oct-26 05:31N 53°31' E 008°09'0 0.0
2014-Oct-26 04:28N 53°31' E 008°09'0 0.0
2014-Oct-26 03:31N 53°31' E 008°09'0 0.0
2014-Oct-26 02:31N 53°31' E 008°09'0 0.0
2014-Oct-26 01:31N 53°31' E 008°09'0 0.0
2014-Oct-26 00:31N 53°31' E 008°09'0 0.0
2014-Oct-25 23:31N 53°31' E 008°09'0 0.0
2014-Oct-25 22:31N 53°31' E 008°09'0 0.0
2014-Oct-25 21:31N 53°31' E 008°09'0 0.0
2014-Oct-25 20:31N 53°31' E 008°09'0 0.0
2014-Oct-25 19:31N 53°31' E 008°09'0 0.0
2014-Oct-25 18:31N 53°31' E 008°09'0 0.0
2014-Oct-25 17:31N 53°31' E 008°09'0 0.0
2014-Oct-25 16:31N 53°31' E 008°09'0 0.0
2014-Oct-25 15:31N 53°31' E 008°09'0 0.0
2014-Oct-25 14:31N 53°31' E 008°09'0 0.0
2014-Oct-25 13:28N 53°31' E 008°09'0 0.0
2014-Oct-25 12:31N 53°31' E 008°09'0 0.0
2014-Oct-25 11:31N 53°31' E 008°09'0 0.0
2014-Oct-25 10:28N 53°31' E 008°09'0 0.0
2014-Oct-25 09:28N 53°31' E 008°09'0 0.0
2014-Oct-25 08:31N 53°31' E 008°09'0 0.0
2014-Oct-25 07:31N 53°31' E 008°09'0 0.0
2014-Oct-25 06:31N 53°31' E 008°09'0 0.0
2014-Oct-25 05:31N 53°31' E 008°09'0 0.0
2014-Oct-25 04:31N 53°31' E 008°09'0 0.0
2014-Oct-25 03:31N 53°31' E 008°09'0 0.0
2014-Oct-25 02:31N 53°31' E 008°09'0 0.0
2014-Oct-25 01:31N 53°31' E 008°09'0 0.0
2014-Oct-25 00:31N 53°31' E 008°09'0 0.0
2014-Oct-24 23:31N 53°31' E 008°09'0 0.0
2014-Oct-24 22:31N 53°31' E 008°09'0 0.0
2014-Oct-24 21:31N 53°31' E 008°09'0 0.0
2014-Oct-24 20:31N 53°31' E 008°09'0 0.0
2014-Oct-24 19:31N 53°31' E 008°09'0 0.0
2014-Oct-24 18:31N 53°31' E 008°09'0 0.0
2014-Oct-24 17:31N 53°31' E 008°09'0 0.0
2014-Oct-24 16:31N 53°31' E 008°09'0 0.0
2014-Oct-24 15:31N 53°31' E 008°09'0 0.0
2014-Oct-24 14:31N 53°31' E 008°09'0 0.0
2014-Oct-24 13:31N 53°31' E 008°09'0 0.0
2014-Oct-24 12:31N 53°31' E 008°09'0 0.0
2014-Oct-24 11:31N 53°31' E 008°09'0 0.0
2014-Oct-24 10:31N 53°31' E 008°09'0 0.0
2014-Oct-24 09:31N 53°31' E 008°09'0 0.0
2014-Oct-24 08:31N 53°31' E 008°09'0 0.0
2014-Oct-24 07:31N 53°31' E 008°09'0 0.0
2014-Oct-24 06:31N 53°31' E 008°09'0 0.0
2014-Oct-24 05:31N 53°31' E 008°09'0 0.0
2014-Oct-24 04:31N 53°31' E 008°09'0 0.0
2014-Oct-24 03:31N 53°31' E 008°09'0 0.0
2014-Oct-24 02:31N 53°31' E 008°09'0 0.0
2014-Oct-24 01:31N 53°31' E 008°09'0 0.0
2014-Oct-24 00:31N 53°31' E 008°09'0 0.0
2014-Oct-23 23:31N 53°31' E 008°09'0 0.0
2014-Oct-23 22:31N 53°31' E 008°09'0 0.0
2014-Oct-23 21:28N 53°31' E 008°09'0 0.0
2014-Oct-23 20:31N 53°31' E 008°09'0 0.0
2014-Oct-23 19:31N 53°31' E 008°09'0 0.0
2014-Oct-23 18:31N 53°31' E 008°09'0 0.0
2014-Oct-23 17:31N 53°31' E 008°09'0 0.0
2014-Oct-23 16:31N 53°31' E 008°09'0 0.0
2014-Oct-23 15:31N 53°31' E 008°09'0 0.0
2014-Oct-23 14:31N 53°31' E 008°09'0 0.0
2014-Oct-23 13:31N 53°31' E 008°09'0 0.0
2014-Oct-23 12:31N 53°31' E 008°09'0 0.0
2014-Oct-23 11:31N 53°31' E 008°09'0 0.0
2014-Oct-23 10:31N 53°31' E 008°09'0 0.0
2014-Oct-23 09:31N 53°31' E 008°09'0 0.0
2014-Oct-23 08:31N 53°31' E 008°09'0 0.0
2014-Oct-23 07:31N 53°31' E 008°09'0 0.0
2014-Oct-23 06:31N 53°31' E 008°09'0 0.0
2014-Oct-23 05:31N 53°31' E 008°09'0 0.0
2014-Oct-23 04:31N 53°31' E 008°09'0 0.0
2014-Oct-23 03:31N 53°31' E 008°09'0 0.0
2014-Oct-23 02:31N 53°31' E 008°09'0 0.0
2014-Oct-23 01:31N 53°31' E 008°09'0 0.0
2014-Oct-23 00:31N 53°31' E 008°09'0 0.0
2014-Oct-22 23:31N 53°31' E 008°09'0 0.0
2014-Oct-22 22:31N 53°31' E 008°09'0 0.0
2014-Oct-22 21:31N 53°31' E 008°09'0 0.0
2014-Oct-22 20:31N 53°31' E 008°09'0 0.0
2014-Oct-22 19:31N 53°31' E 008°09'0 0.0
2014-Oct-22 18:31N 53°31' E 008°09'0 0.0
2014-Oct-22 17:31N 53°31' E 008°09'0 0.0
2014-Oct-22 16:31N 53°31' E 008°09'0 0.0
2014-Oct-22 15:31N 53°31' E 008°09'0 0.0
2014-Oct-22 14:31N 53°31' E 008°09'0 0.0
2014-Oct-22 13:31N 53°31' E 008°09'0 0.0
2014-Oct-22 12:28N 53°31' E 008°09'0 0.0
2014-Oct-22 11:31N 53°31' E 008°09'0 0.0
2014-Oct-22 10:25N 53°31' E 008°09'0 0.0
2014-Oct-22 09:31N 53°31' E 008°09'0 0.0
2014-Oct-22 08:31N 53°31' E 008°09'0 0.0
2014-Oct-22 07:31N 53°31' E 008°09'0 0.0
2014-Oct-22 06:31N 53°31' E 008°09'0 0.0
2014-Oct-22 05:31N 53°31' E 008°09'0 0.0
2014-Oct-22 04:25N 53°31' E 008°09'0 0.0
2014-Oct-22 03:31N 53°31' E 008°09'0 0.0
2014-Oct-22 02:31N 53°31' E 008°09'0 0.0
2014-Oct-22 01:31N 53°31' E 008°09'0 0.0
2014-Oct-22 00:28N 53°31' E 008°09'0 0.0
2014-Oct-21 23:31N 53°31' E 008°09'0 0.0
2014-Oct-21 22:31N 53°31' E 008°09'0 0.0
2014-Oct-21 21:31N 53°31' E 008°09'0 0.0
2014-Oct-21 20:31N 53°31' E 008°09'0 0.0
2014-Oct-21 19:31N 53°31' E 008°09'0 0.0
2014-Oct-21 18:31N 53°31' E 008°09'0 0.0
2014-Oct-21 17:31N 53°31' E 008°09'0 0.0
2014-Oct-21 16:31N 53°31' E 008°09'0 0.0
2014-Oct-21 15:31N 53°31' E 008°09'0 0.0
2014-Oct-21 14:31N 53°31' E 008°09'0 0.0
2014-Oct-21 13:31N 53°31' E 008°09'0 0.0
2014-Oct-21 12:31N 53°31' E 008°09'0 0.0
2014-Oct-21 11:31N 53°31' E 008°09'0 0.0
2014-Oct-21 10:31N 53°31' E 008°09'0 0.0
2014-Oct-21 09:31N 53°31' E 008°09'0 0.0
2014-Oct-21 08:31N 53°31' E 008°09'0 0.0
2014-Oct-21 07:31N 53°31' E 008°09'0 0.0
2014-Oct-21 06:31N 53°31' E 008°09'0 0.0
2014-Oct-21 05:31N 53°31' E 008°09'0 0.0
2014-Oct-21 04:31N 53°31' E 008°09'0 0.0
2014-Oct-21 03:31N 53°31' E 008°09'0 0.0
2014-Oct-21 02:31N 53°31' E 008°09'0 0.0
2014-Oct-21 01:31N 53°31' E 008°09'0 0.0
2014-Oct-21 00:31N 53°31' E 008°09'0 0.0
2014-Oct-20 23:31N 53°31' E 008°09'0 0.0
2014-Oct-20 22:31N 53°31' E 008°09'  

Dump ship's entire track history